sensor_id;sensor_type;location;lat;lon;timestamp;temperature;humidity
17984;DHT22;9117;52.420;20.728;2022-12-08T00:01:33;0.90;99.90
17984;DHT22;9117;52.420;20.728;2022-12-08T00:04:02;0.80;99.90
17984;DHT22;9117;52.420;20.728;2022-12-08T00:06:34;0.70;99.90
17984;DHT22;9117;52.420;20.728;2022-12-08T00:09:21;0.70;99.90
17984;DHT22;9117;52.420;20.728;2022-12-08T00:11:52;1.00;1.00
17984;DHT22;9117;52.420;20.728;2022-12-08T00:14:24;1.70;99.90
17984;DHT22;9117;52.420;20.728;2022-12-08T00:16:52;0.60;1.00
17984;DHT22;9117;52.420;20.728;2022-12-08T00:19:22;2.00;1.00
17984;DHT22;9117;52.420;20.728;2022-12-08T00:21:52;0.70;99.90
17984;DHT22;9117;52.420;20.728;2022-12-08T00:24:21;0.70;1.00
17984;DHT22;9117;52.420;20.728;2022-12-08T00:26:50;1.00;1.00
17984;DHT22;9117;52.420;20.728;2022-12-08T00:29:19;0.70;1.00
17984;DHT22;9117;52.420;20.728;2022-12-08T00:31:47;0.70;1.00
17984;DHT22;9117;52.420;20.728;2022-12-08T00:34:15;2.00;1.00
17984;DHT22;9117;52.420;20.728;2022-12-08T00:36:44;0.80;1.00
17984;DHT22;9117;52.420;20.728;2022-12-08T00:39:14;0.70;99.90
17984;DHT22;9117;52.420;20.728;2022-12-08T00:41:43;0.70;99.90
17984;DHT22;9117;52.420;20.728;2022-12-08T00:44:29;0.70;1.00
17984;DHT22;9117;52.420;20.728;2022-12-08T00:46:57;0.70;99.90
17984;DHT22;9117;52.420;20.728;2022-12-08T00:49:25;0.80;99.90
17984;DHT22;9117;52.420;20.728;2022-12-08T00:51:53;0.80;99.90
17984;DHT22;9117;52.420;20.728;2022-12-08T00:54:22;0.80;99.90
17984;DHT22;9117;52.420;20.728;2022-12-08T00:56:50;1.00;1.00
17984;DHT22;9117;52.420;20.728;2022-12-08T00:59:18;0.80;1.00
17984;DHT22;9117;52.420;20.728;2022-12-08T01:01:47;0.80;1.00
17984;DHT22;9117;52.420;20.728;2022-12-08T01:04:17;1.80;99.90
17984;DHT22;9117;52.420;20.728;2022-12-08T01:06:46;0.80;99.90
17984;DHT22;9117;52.420;20.728;2022-12-08T01:09:15;1.10;99.90
17984;DHT22;9117;52.420;20.728;2022-12-08T01:11:45;2.00;99.90
17984;DHT22;9117;52.420;20.728;2022-12-08T01:14:14;0.70;99.90
17984;DHT22;9117;52.420;20.728;2022-12-08T01:16:42;0.70;99.90
17984;DHT22;9117;52.420;20.728;2022-12-08T01:19:11;0.90;1.00
17984;DHT22;9117;52.420;20.728;2022-12-08T01:21:41;1.80;1.00
17984;DHT22;9117;52.420;20.728;2022-12-08T01:24:10;0.70;1.00
17984;DHT22;9117;52.420;20.728;2022-12-08T01:26:39;2.00;1.00
17984;DHT22;9117;52.420;20.728;2022-12-08T01:29:09;0.70;1.00
17984;DHT22;9117;52.420;20.728;2022-12-08T01:31:37;0.70;1.00
17984;DHT22;9117;52.420;20.728;2022-12-08T01:34:06;0.60;1.00
17984;DHT22;9117;52.420;20.728;2022-12-08T01:36:35;1.10;1.00
17984;DHT22;9117;52.420;20.728;2022-12-08T01:39:05;2.30;1.00
17984;DHT22;9117;52.420;20.728;2022-12-08T01:41:35;0.40;1.00
17984;DHT22;9117;52.420;20.728;2022-12-08T01:47:11;0.40;1.00
17984;DHT22;9117;52.420;20.728;2022-12-08T01:49:39;1.40;99.90
17984;DHT22;9117;52.420;20.728;2022-12-08T01:52:11;0.50;99.90
17984;DHT22;9117;52.420;20.728;2022-12-08T01:54:45;0.40;1.00
17984;DHT22;9117;52.420;20.728;2022-12-08T01:57:17;0.60;99.90
17984;DHT22;9117;52.420;20.728;2022-12-08T01:59:49;0.40;1.00
17984;DHT22;9117;52.420;20.728;2022-12-08T02:02:22;0.50;1.00
17984;DHT22;9117;52.420;20.728;2022-12-08T02:04:51;0.50;1.00
17984;DHT22;9117;52.420;20.728;2022-12-08T02:07:19;0.50;1.00
17984;DHT22;9117;52.420;20.728;2022-12-08T02:09:48;0.40;1.00
17984;DHT22;9117;52.420;20.728;2022-12-08T02:12:17;0.30;1.00
17984;DHT22;9117;52.420;20.728;2022-12-08T02:14:45;0.40;1.00
17984;DHT22;9117;52.420;20.728;2022-12-08T02:17:25;0.40;1.00
17984;DHT22;9117;52.420;20.728;2022-12-08T02:20:17;2.60;1.00
17984;DHT22;9117;52.420;20.728;2022-12-08T02:22:53;0.40;1.00
17984;DHT22;9117;52.420;20.728;2022-12-08T02:25:28;0.50;1.00
17984;DHT22;9117;52.420;20.728;2022-12-08T02:28:04;0.40;1.00
17984;DHT22;9117;52.420;20.728;2022-12-08T02:30:44;0.60;1.00
17984;DHT22;9117;52.420;20.728;2022-12-08T02:33:46;0.50;1.00
17984;DHT22;9117;52.420;20.728;2022-12-08T02:36:23;0.40;1.00
17984;DHT22;9117;52.420;20.728;2022-12-08T02:39:01;0.50;1.00
17984;DHT22;9117;52.420;20.728;2022-12-08T02:41:37;0.50;1.00
17984;DHT22;9117;52.420;20.728;2022-12-08T02:44:11;0.50;1.00
17984;DHT22;9117;52.420;20.728;2022-12-08T02:46:53;0.50;1.00
17984;DHT22;9117;52.420;20.728;2022-12-08T02:49:28;0.40;1.00
17984;DHT22;9117;52.420;20.728;2022-12-08T02:52:07;0.50;1.00
17984;DHT22;9117;52.420;20.728;2022-12-08T02:54:57;0.50;1.00
17984;DHT22;9117;52.420;20.728;2022-12-08T02:57:34;0.50;22.70
17984;DHT22;9117;52.420;20.728;2022-12-08T03:00:07;0.50;1.00
17984;DHT22;9117;52.420;20.728;2022-12-08T03:02:47;0.50;70.00
17984;DHT22;9117;52.420;20.728;2022-12-08T03:05:31;0.40;1.00
17984;DHT22;9117;52.420;20.728;2022-12-08T03:08:05;0.40;1.00
17984;DHT22;9117;52.420;20.728;2022-12-08T03:10:36;0.50;1.00
17984;DHT22;9117;52.420;20.728;2022-12-08T03:13:10;0.50;1.00
17984;DHT22;9117;52.420;20.728;2022-12-08T03:15:41;0.50;1.00
17984;DHT22;9117;52.420;20.728;2022-12-08T03:18:14;0.50;1.00
17984;DHT22;9117;52.420;20.728;2022-12-08T03:20:45;0.50;1.00
17984;DHT22;9117;52.420;20.728;2022-12-08T03:23:15;0.40;1.00
17984;DHT22;9117;52.420;20.728;2022-12-08T03:25:49;0.50;1.00
17984;DHT22;9117;52.420;20.728;2022-12-08T03:28:18;0.50;1.00
17984;DHT22;9117;52.420;20.728;2022-12-08T03:30:48;0.40;1.00
17984;DHT22;9117;52.420;20.728;2022-12-08T03:33:25;0.30;1.00
17984;DHT22;9117;52.420;20.728;2022-12-08T03:35:56;0.50;99.90
17984;DHT22;9117;52.420;20.728;2022-12-08T03:38:36;0.40;1.00
17984;DHT22;9117;52.420;20.728;2022-12-08T03:41:04;0.40;1.00
17984;DHT22;9117;52.420;20.728;2022-12-08T03:43:46;0.40;63.50
17984;DHT22;9117;52.420;20.728;2022-12-08T03:46:15;0.30;1.00
17984;DHT22;9117;52.420;20.728;2022-12-08T03:48:43;0.30;1.00
17984;DHT22;9117;52.420;20.728;2022-12-08T03:51:13;0.30;1.00
17984;DHT22;9117;52.420;20.728;2022-12-08T03:53:41;0.30;1.00
17984;DHT22;9117;52.420;20.728;2022-12-08T03:56:15;1.30;1.00
17984;DHT22;9117;52.420;20.728;2022-12-08T03:58:43;0.30;1.00
17984;DHT22;9117;52.420;20.728;2022-12-08T04:01:11;0.40;1.00
17984;DHT22;9117;52.420;20.728;2022-12-08T04:03:39;0.30;1.00
17984;DHT22;9117;52.420;20.728;2022-12-08T04:06:08;0.30;1.00
17984;DHT22;9117;52.420;20.728;2022-12-08T04:08:37;1.50;1.00
17984;DHT22;9117;52.420;20.728;2022-12-08T04:11:05;0.20;99.90
17984;DHT22;9117;52.420;20.728;2022-12-08T04:13:34;0.30;99.90
17984;DHT22;9117;52.420;20.728;2022-12-08T04:16:02;0.30;99.90
17984;DHT22;9117;52.420;20.728;2022-12-08T04:18:31;0.40;99.90
17984;DHT22;9117;52.420;20.728;2022-12-08T04:20:59;0.20;99.90
17984;DHT22;9117;52.420;20.728;2022-12-08T04:23:27;0.30;99.90
17984;DHT22;9117;52.420;20.728;2022-12-08T04:25:56;0.20;99.90
17984;DHT22;9117;52.420;20.728;2022-12-08T04:28:24;-0.30;99.90
17984;DHT22;9117;52.420;20.728;2022-12-08T04:30:52;0.10;95.90
17984;DHT22;9117;52.420;20.728;2022-12-08T04:33:20;0.20;92.90
17984;DHT22;9117;52.420;20.728;2022-12-08T04:35:48;0.10;1.00
17984;DHT22;9117;52.420;20.728;2022-12-08T04:38:16;0.00;1.00
17984;DHT22;9117;52.420;20.728;2022-12-08T04:40:45;0.20;36.40
17984;DHT22;9117;52.420;20.728;2022-12-08T04:43:15;-1.80;99.90
17984;DHT22;9117;52.420;20.728;2022-12-08T04:45:43;0.10;1.00
17984;DHT22;9117;52.420;20.728;2022-12-08T04:48:12;0.20;99.90
17984;DHT22;9117;52.420;20.728;2022-12-08T04:50:41;0.10;1.00
17984;DHT22;9117;52.420;20.728;2022-12-08T04:53:11;0.20;64.00
17984;DHT22;9117;52.420;20.728;2022-12-08T04:55:41;0.20;99.90
17984;DHT22;9117;52.420;20.728;2022-12-08T04:58:11;0.10;75.20
17984;DHT22;9117;52.420;20.728;2022-12-08T05:00:42;0.30;99.90
17984;DHT22;9117;52.420;20.728;2022-12-08T05:03:11;0.30;99.90
17984;DHT22;9117;52.420;20.728;2022-12-08T05:05:40;0.20;99.90
17984;DHT22;9117;52.420;20.728;2022-12-08T05:08:09;0.30;99.90
17984;DHT22;9117;52.420;20.728;2022-12-08T05:10:37;0.20;99.90
17984;DHT22;9117;52.420;20.728;2022-12-08T05:13:06;0.30;99.90
17984;DHT22;9117;52.420;20.728;2022-12-08T05:15:34;0.20;99.90
17984;DHT22;9117;52.420;20.728;2022-12-08T05:18:04;0.30;99.90
17984;DHT22;9117;52.420;20.728;2022-12-08T05:20:32;0.40;99.90
17984;DHT22;9117;52.420;20.728;2022-12-08T05:23:00;0.30;99.90
17984;DHT22;9117;52.420;20.728;2022-12-08T05:25:28;1.10;1.00
17984;DHT22;9117;52.420;20.728;2022-12-08T05:27:57;0.30;99.90
17984;DHT22;9117;52.420;20.728;2022-12-08T05:30:45;0.30;99.90
17984;DHT22;9117;52.420;20.728;2022-12-08T05:33:14;0.30;99.90
17984;DHT22;9117;52.420;20.728;2022-12-08T05:35:43;0.40;29.80
17984;DHT22;9117;52.420;20.728;2022-12-08T05:38:11;0.40;99.90
17984;DHT22;9117;52.420;20.728;2022-12-08T05:40:39;0.30;1.00
17984;DHT22;9117;52.420;20.728;2022-12-08T05:43:09;0.70;1.00
17984;DHT22;9117;52.420;20.728;2022-12-08T05:45:37;1.00;1.00
17984;DHT22;9117;52.420;20.728;2022-12-08T05:48:05;0.30;1.00
17984;DHT22;9117;52.420;20.728;2022-12-08T05:50:34;1.30;1.00
17984;DHT22;9117;52.420;20.728;2022-12-08T05:53:03;0.40;1.00
17984;DHT22;9117;52.420;20.728;2022-12-08T05:55:31;0.40;1.00
17984;DHT22;9117;52.420;20.728;2022-12-08T05:57:59;0.80;1.00
17984;DHT22;9117;52.420;20.728;2022-12-08T06:00:33;0.40;1.00
17984;DHT22;9117;52.420;20.728;2022-12-08T06:03:01;0.40;1.00
17984;DHT22;9117;52.420;20.728;2022-12-08T06:05:31;0.30;99.90
17984;DHT22;9117;52.420;20.728;2022-12-08T06:08:00;0.40;99.90
17984;DHT22;9117;52.420;20.728;2022-12-08T06:10:29;1.20;99.90
17984;DHT22;9117;52.420;20.728;2022-12-08T06:12:57;1.70;99.90
17984;DHT22;9117;52.420;20.728;2022-12-08T06:15:26;2.10;1.00
17984;DHT22;9117;52.420;20.728;2022-12-08T06:17:55;0.40;1.00
17984;DHT22;9117;52.420;20.728;2022-12-08T06:20:23;0.40;1.00
17984;DHT22;9117;52.420;20.728;2022-12-08T06:22:52;0.40;99.90
17984;DHT22;9117;52.420;20.728;2022-12-08T06:25:23;0.50;99.90
17984;DHT22;9117;52.420;20.728;2022-12-08T06:27:51;0.40;99.90
17984;DHT22;9117;52.420;20.728;2022-12-08T06:30:19;1.70;99.90
17984;DHT22;9117;52.420;20.728;2022-12-08T06:32:47;0.90;1.00
17984;DHT22;9117;52.420;20.728;2022-12-08T06:35:15;0.40;1.00
17984;DHT22;9117;52.420;20.728;2022-12-08T06:37:43;0.40;1.00
17984;DHT22;9117;52.420;20.728;2022-12-08T06:40:12;0.50;1.00
17984;DHT22;9117;52.420;20.728;2022-12-08T06:42:43;0.50;43.50
17984;DHT22;9117;52.420;20.728;2022-12-08T06:45:13;0.40;99.90
17984;DHT22;9117;52.420;20.728;2022-12-08T06:47:42;0.40;99.90
17984;DHT22;9117;52.420;20.728;2022-12-08T06:50:11;0.40;1.00
17984;DHT22;9117;52.420;20.728;2022-12-08T06:52:39;0.50;1.00
17984;DHT22;9117;52.420;20.728;2022-12-08T06:55:24;2.70;1.00
17984;DHT22;9117;52.420;20.728;2022-12-08T06:58:13;0.40;99.90
17984;DHT22;9117;52.420;20.728;2022-12-08T07:00:41;0.40;99.90
17984;DHT22;9117;52.420;20.728;2022-12-08T07:03:11;0.40;1.00
17984;DHT22;9117;52.420;20.728;2022-12-08T07:05:39;0.40;99.90
17984;DHT22;9117;52.420;20.728;2022-12-08T07:08:07;0.40;99.90
17984;DHT22;9117;52.420;20.728;2022-12-08T07:10:36;0.40;99.90
17984;DHT22;9117;52.420;20.728;2022-12-08T07:13:04;0.50;1.00
17984;DHT22;9117;52.420;20.728;2022-12-08T07:15:34;0.20;1.00
17984;DHT22;9117;52.420;20.728;2022-12-08T07:18:02;0.40;1.00
17984;DHT22;9117;52.420;20.728;2022-12-08T07:20:30;0.30;1.00
17984;DHT22;9117;52.420;20.728;2022-12-08T07:22:58;0.20;1.00
17984;DHT22;9117;52.420;20.728;2022-12-08T07:25:26;0.40;1.00
17984;DHT22;9117;52.420;20.728;2022-12-08T07:27:54;0.30;1.00
17984;DHT22;9117;52.420;20.728;2022-12-08T07:30:22;0.40;1.00
17984;DHT22;9117;52.420;20.728;2022-12-08T07:32:52;0.70;1.00
17984;DHT22;9117;52.420;20.728;2022-12-08T07:35:20;0.30;1.00
17984;DHT22;9117;52.420;20.728;2022-12-08T07:37:48;0.30;1.00
17984;DHT22;9117;52.420;20.728;2022-12-08T07:40:17;0.40;1.00
17984;DHT22;9117;52.420;20.728;2022-12-08T07:42:45;0.40;1.00
17984;DHT22;9117;52.420;20.728;2022-12-08T07:45:15;0.30;1.00
17984;DHT22;9117;52.420;20.728;2022-12-08T07:47:44;0.40;1.00
17984;DHT22;9117;52.420;20.728;2022-12-08T07:50:13;0.40;1.00
17984;DHT22;9117;52.420;20.728;2022-12-08T07:52:41;0.40;1.00
17984;DHT22;9117;52.420;20.728;2022-12-08T07:55:09;0.30;1.00
17984;DHT22;9117;52.420;20.728;2022-12-08T07:57:37;0.40;1.00
17984;DHT22;9117;52.420;20.728;2022-12-08T08:00:07;0.30;1.00
17984;DHT22;9117;52.420;20.728;2022-12-08T08:02:35;0.30;1.00
17984;DHT22;9117;52.420;20.728;2022-12-08T08:05:04;0.20;1.00
17984;DHT22;9117;52.420;20.728;2022-12-08T08:07:34;0.40;1.00
17984;DHT22;9117;52.420;20.728;2022-12-08T08:10:03;0.30;1.00
17984;DHT22;9117;52.420;20.728;2022-12-08T08:12:32;0.40;1.00
17984;DHT22;9117;52.420;20.728;2022-12-08T08:15:01;0.50;99.90
17984;DHT22;9117;52.420;20.728;2022-12-08T08:17:29;0.70;1.00
17984;DHT22;9117;52.420;20.728;2022-12-08T08:19:58;0.60;46.50
17984;DHT22;9117;52.420;20.728;2022-12-08T08:22:26;0.80;1.00
17984;DHT22;9117;52.420;20.728;2022-12-08T08:24:56;0.60;1.00
17984;DHT22;9117;52.420;20.728;2022-12-08T08:27:24;0.60;1.00
17984;DHT22;9117;52.420;20.728;2022-12-08T08:29:52;2.00;1.00
17984;DHT22;9117;52.420;20.728;2022-12-08T08:32:20;0.70;1.00
17984;DHT22;9117;52.420;20.728;2022-12-08T08:34:50;0.80;1.00
17984;DHT22;9117;52.420;20.728;2022-12-08T08:37:18;0.80;1.00
17984;DHT22;9117;52.420;20.728;2022-12-08T08:39:46;0.90;99.90
17984;DHT22;9117;52.420;20.728;2022-12-08T08:42:16;0.80;99.90
17984;DHT22;9117;52.420;20.728;2022-12-08T08:44:44;0.90;1.00
17984;DHT22;9117;52.420;20.728;2022-12-08T08:47:12;0.90;1.00
17984;DHT22;9117;52.420;20.728;2022-12-08T08:49:43;0.90;1.00
17984;DHT22;9117;52.420;20.728;2022-12-08T08:52:11;1.00;1.00
17984;DHT22;9117;52.420;20.728;2022-12-08T08:54:39;1.00;1.00
17984;DHT22;9117;52.420;20.728;2022-12-08T08:57:08;0.90;1.00
17984;DHT22;9117;52.420;20.728;2022-12-08T08:59:37;0.90;1.00
17984;DHT22;9117;52.420;20.728;2022-12-08T09:02:05;1.20;1.00
17984;DHT22;9117;52.420;20.728;2022-12-08T09:04:34;1.10;1.00
17984;DHT22;9117;52.420;20.728;2022-12-08T09:07:02;1.20;19.60
17984;DHT22;9117;52.420;20.728;2022-12-08T09:09:31;1.10;1.00
17984;DHT22;9117;52.420;20.728;2022-12-08T09:11:59;1.10;1.00
17984;DHT22;9117;52.420;20.728;2022-12-08T09:14:27;1.10;1.00
17984;DHT22;9117;52.420;20.728;2022-12-08T09:16:56;1.10;1.00
17984;DHT22;9117;52.420;20.728;2022-12-08T09:19:25;1.30;99.90
17984;DHT22;9117;52.420;20.728;2022-12-08T09:21:53;1.20;1.00
17984;DHT22;9117;52.420;20.728;2022-12-08T09:24:21;1.30;99.90
17984;DHT22;9117;52.420;20.728;2022-12-08T09:26:49;1.60;99.90
17984;DHT22;9117;52.420;20.728;2022-12-08T09:29:17;1.50;99.90
17984;DHT22;9117;52.420;20.728;2022-12-08T09:31:45;1.70;99.90
17984;DHT22;9117;52.420;20.728;2022-12-08T09:34:15;1.50;99.90
17984;DHT22;9117;52.420;20.728;2022-12-08T09:36:43;1.60;99.90
17984;DHT22;9117;52.420;20.728;2022-12-08T09:39:11;1.70;99.90
17984;DHT22;9117;52.420;20.728;2022-12-08T09:41:43;1.70;99.90
17984;DHT22;9117;52.420;20.728;2022-12-08T09:44:49;1.60;99.90
17984;DHT22;9117;52.420;20.728;2022-12-08T09:47:25;1.60;99.90
17984;DHT22;9117;52.420;20.728;2022-12-08T09:50:06;1.60;99.90
17984;DHT22;9117;52.420;20.728;2022-12-08T09:52:40;1.50;1.00
17984;DHT22;9117;52.420;20.728;2022-12-08T09:55:17;1.70;99.90
17984;DHT22;9117;52.420;20.728;2022-12-08T09:57:52;1.50;1.00
17984;DHT22;9117;52.420;20.728;2022-12-08T10:00:22;1.60;99.90
17984;DHT22;9117;52.420;20.728;2022-12-08T10:02:50;1.40;99.90
17984;DHT22;9117;52.420;20.728;2022-12-08T10:05:20;1.60;97.90
17984;DHT22;9117;52.420;20.728;2022-12-08T10:08:00;1.40;99.90
17984;DHT22;9117;52.420;20.728;2022-12-08T10:10:37;1.70;1.00
17984;DHT22;9117;52.420;20.728;2022-12-08T10:13:13;1.50;89.60
17984;DHT22;9117;52.420;20.728;2022-12-08T10:15:45;1.70;1.00
17984;DHT22;9117;52.420;20.728;2022-12-08T10:18:17;1.70;99.90
17984;DHT22;9117;52.420;20.728;2022-12-08T10:20:49;1.40;99.90
17984;DHT22;9117;52.420;20.728;2022-12-08T10:23:23;1.70;10.50
17984;DHT22;9117;52.420;20.728;2022-12-08T10:25:57;1.70;99.90
17984;DHT22;9117;52.420;20.728;2022-12-08T10:28:27;2.10;99.90
17984;DHT22;9117;52.420;20.728;2022-12-08T10:30:55;1.70;99.90
17984;DHT22;9117;52.420;20.728;2022-12-08T10:33:23;1.80;1.00
17984;DHT22;9117;52.420;20.728;2022-12-08T10:35:54;1.60;22.20
17984;DHT22;9117;52.420;20.728;2022-12-08T10:38:28;1.80;1.00
17984;DHT22;9117;52.420;20.728;2022-12-08T10:41:00;1.80;1.00
17984;DHT22;9117;52.420;20.728;2022-12-08T10:43:30;1.80;99.90
17984;DHT22;9117;52.420;20.728;2022-12-08T10:46:08;2.00;61.50
17984;DHT22;9117;52.420;20.728;2022-12-08T10:48:46;2.00;53.40
17984;DHT22;9117;52.420;20.728;2022-12-08T10:51:27;2.10;99.90
17984;DHT22;9117;52.420;20.728;2022-12-08T10:53:56;2.10;1.00
17984;DHT22;9117;52.420;20.728;2022-12-08T10:56:26;2.10;1.00
17984;DHT22;9117;52.420;20.728;2022-12-08T10:59:10;2.20;1.00
17984;DHT22;9117;52.420;20.728;2022-12-08T11:01:40;2.20;99.90
17984;DHT22;9117;52.420;20.728;2022-12-08T11:04:14;-0.10;1.00
17984;DHT22;9117;52.420;20.728;2022-12-08T11:06:46;2.20;1.00
17984;DHT22;9117;52.420;20.728;2022-12-08T11:09:24;2.20;1.00
17984;DHT22;9117;52.420;20.728;2022-12-08T11:11:58;2.30;1.00
17984;DHT22;9117;52.420;20.728;2022-12-08T11:14:29;2.40;61.50
17984;DHT22;9117;52.420;20.728;2022-12-08T11:17:03;2.40;78.00
17984;DHT22;9117;52.420;20.728;2022-12-08T11:19:36;2.40;99.90
17984;DHT22;9117;52.420;20.728;2022-12-08T11:24:56;2.50;1.00
17984;DHT22;9117;52.420;20.728;2022-12-08T11:34:54;2.50;99.90
17984;DHT22;9117;52.420;20.728;2022-12-08T11:37:29;2.50;1.00
17984;DHT22;9117;52.420;20.728;2022-12-08T11:40:04;2.50;1.00
17984;DHT22;9117;52.420;20.728;2022-12-08T11:42:42;2.60;99.90
17984;DHT22;9117;52.420;20.728;2022-12-08T11:45:19;2.70;99.90
17984;DHT22;9117;52.420;20.728;2022-12-08T11:47:55;2.70;99.90
17984;DHT22;9117;52.420;20.728;2022-12-08T11:50:28;2.80;1.00
17984;DHT22;9117;52.420;20.728;2022-12-08T11:52:59;2.70;99.90
17984;DHT22;9117;52.420;20.728;2022-12-08T11:55:33;2.70;4.00
17984;DHT22;9117;52.420;20.728;2022-12-08T11:58:13;2.60;99.90
17984;DHT22;9117;52.420;20.728;2022-12-08T12:03:20;2.60;1.00
17984;DHT22;9117;52.420;20.728;2022-12-08T12:06:04;2.70;14.70
17984;DHT22;9117;52.420;20.728;2022-12-08T12:09:03;2.70;1.00
17984;DHT22;9117;52.420;20.728;2022-12-08T12:11:42;2.60;99.90
17984;DHT22;9117;52.420;20.728;2022-12-08T12:14:50;1.00;99.90
17984;DHT22;9117;52.420;20.728;2022-12-08T12:17:31;2.70;99.90
17984;DHT22;9117;52.420;20.728;2022-12-08T12:20:11;2.60;99.90
17984;DHT22;9117;52.420;20.728;2022-12-08T12:22:41;2.60;99.90
17984;DHT22;9117;52.420;20.728;2022-12-08T12:25:18;2.70;99.90
17984;DHT22;9117;52.420;20.728;2022-12-08T12:30:21;2.40;1.00
17984;DHT22;9117;52.420;20.728;2022-12-08T12:32:52;2.70;1.00
17984;DHT22;9117;52.420;20.728;2022-12-08T12:35:29;2.80;1.00
17984;DHT22;9117;52.420;20.728;2022-12-08T12:38:03;2.80;1.00
17984;DHT22;9117;52.420;20.728;2022-12-08T12:41:00;2.80;1.00
17984;DHT22;9117;52.420;20.728;2022-12-08T12:43:31;3.00;1.00
17984;DHT22;9117;52.420;20.728;2022-12-08T12:46:38;2.90;99.90
17984;DHT22;9117;52.420;20.728;2022-12-08T12:52:48;3.00;1.00
17984;DHT22;9117;52.420;20.728;2022-12-08T12:58:38;3.10;99.90
17984;DHT22;9117;52.420;20.728;2022-12-08T13:04:34;2.70;99.90
17984;DHT22;9117;52.420;20.728;2022-12-08T13:07:04;3.60;99.90
17984;DHT22;9117;52.420;20.728;2022-12-08T13:09:35;2.90;99.90
17984;DHT22;9117;52.420;20.728;2022-12-08T13:12:09;2.90;1.00
17984;DHT22;9117;52.420;20.728;2022-12-08T13:14:44;2.90;1.00
17984;DHT22;9117;52.420;20.728;2022-12-08T13:17:18;2.80;7.60
17984;DHT22;9117;52.420;20.728;2022-12-08T13:19:53;2.90;1.00
17984;DHT22;9117;52.420;20.728;2022-12-08T13:22:45;3.60;99.90
17984;DHT22;9117;52.420;20.728;2022-12-08T13:25:46;2.70;99.90
17984;DHT22;9117;52.420;20.728;2022-12-08T13:28:21;2.80;1.00
17984;DHT22;9117;52.420;20.728;2022-12-08T13:30:52;2.70;1.00
17984;DHT22;9117;52.420;20.728;2022-12-08T13:33:26;2.80;1.00
17984;DHT22;9117;52.420;20.728;2022-12-08T13:36:09;2.60;1.00
17984;DHT22;9117;52.420;20.728;2022-12-08T13:38:38;2.50;1.00
17984;DHT22;9117;52.420;20.728;2022-12-08T13:41:14;2.60;1.00
17984;DHT22;9117;52.420;20.728;2022-12-08T13:43:46;2.50;1.00
17984;DHT22;9117;52.420;20.728;2022-12-08T13:46:41;2.30;1.00
17984;DHT22;9117;52.420;20.728;2022-12-08T13:49:35;2.50;1.00
17984;DHT22;9117;52.420;20.728;2022-12-08T13:52:31;2.40;1.00
17984;DHT22;9117;52.420;20.728;2022-12-08T13:55:24;2.50;1.00
17984;DHT22;9117;52.420;20.728;2022-12-08T13:58:19;2.50;1.00
17984;DHT22;9117;52.420;20.728;2022-12-08T14:00:59;2.40;99.90
17984;DHT22;9117;52.420;20.728;2022-12-08T14:03:35;2.40;1.00
17984;DHT22;9117;52.420;20.728;2022-12-08T14:06:27;2.30;1.00
17984;DHT22;9117;52.420;20.728;2022-12-08T14:13:09;2.50;99.90
17984;DHT22;9117;52.420;20.728;2022-12-08T14:15:38;2.20;99.90
17984;DHT22;9117;52.420;20.728;2022-12-08T14:18:22;2.00;99.90
17984;DHT22;9117;52.420;20.728;2022-12-08T14:21:04;2.40;99.90
17984;DHT22;9117;52.420;20.728;2022-12-08T14:36:12;2.40;99.90
17984;DHT22;9117;52.420;20.728;2022-12-08T14:41:11;2.30;99.90
17984;DHT22;9117;52.420;20.728;2022-12-08T14:46:19;2.30;1.00
17984;DHT22;9117;52.420;20.728;2022-12-08T14:51:25;2.30;69.40
17984;DHT22;9117;52.420;20.728;2022-12-08T14:53:56;2.30;1.00
17984;DHT22;9117;52.420;20.728;2022-12-08T14:56:30;2.30;99.90
17984;DHT22;9117;52.420;20.728;2022-12-08T14:59:05;2.30;99.90
17984;DHT22;9117;52.420;20.728;2022-12-08T15:04:08;2.30;53.00
17984;DHT22;9117;52.420;20.728;2022-12-08T15:06:49;2.30;1.00
17984;DHT22;9117;52.420;20.728;2022-12-08T15:09:29;2.30;1.00
17984;DHT22;9117;52.420;20.728;2022-12-08T15:12:01;2.30;1.00
17984;DHT22;9117;52.420;20.728;2022-12-08T15:14:31;2.30;1.00
17984;DHT22;9117;52.420;20.728;2022-12-08T15:19:30;2.30;1.00
17984;DHT22;9117;52.420;20.728;2022-12-08T15:22:08;2.30;1.00
17984;DHT22;9117;52.420;20.728;2022-12-08T15:27:09;2.30;1.00
17984;DHT22;9117;52.420;20.728;2022-12-08T15:37:15;2.30;1.00
17984;DHT22;9117;52.420;20.728;2022-12-08T15:44:42;2.30;1.00
17984;DHT22;9117;52.420;20.728;2022-12-08T15:47:14;2.30;1.00
17984;DHT22;9117;52.420;20.728;2022-12-08T15:49:44;2.30;1.00
17984;DHT22;9117;52.420;20.728;2022-12-08T15:52:14;2.30;1.00
17984;DHT22;9117;52.420;20.728;2022-12-08T15:57:20;2.30;1.00
17984;DHT22;9117;52.420;20.728;2022-12-08T16:00:24;2.30;1.00
17984;DHT22;9117;52.420;20.728;2022-12-08T16:03:21;2.20;1.00
17984;DHT22;9117;52.420;20.728;2022-12-08T16:06:16;2.30;1.00
17984;DHT22;9117;52.420;20.728;2022-12-08T16:09:08;2.20;1.00
17984;DHT22;9117;52.420;20.728;2022-12-08T16:14:36;2.20;1.00
17984;DHT22;9117;52.420;20.728;2022-12-08T16:17:26;2.30;1.00
17984;DHT22;9117;52.420;20.728;2022-12-08T16:22:23;2.20;1.00
17984;DHT22;9117;52.420;20.728;2022-12-08T16:25:13;2.20;1.00
17984;DHT22;9117;52.420;20.728;2022-12-08T16:27:49;2.20;1.00
17984;DHT22;9117;52.420;20.728;2022-12-08T16:35:35;2.30;1.00
17984;DHT22;9117;52.420;20.728;2022-12-08T16:40:37;2.30;1.00
17984;DHT22;9117;52.420;20.728;2022-12-08T16:55:53;2.30;1.00
17984;DHT22;9117;52.420;20.728;2022-12-08T17:03:20;2.40;99.90
17984;DHT22;9117;52.420;20.728;2022-12-08T17:13:34;2.40;1.00
17984;DHT22;9117;52.420;20.728;2022-12-08T17:16:07;2.50;1.00
17984;DHT22;9117;52.420;20.728;2022-12-08T17:21:08;2.50;1.00
17984;DHT22;9117;52.420;20.728;2022-12-08T17:26:06;5.00;1.00
17984;DHT22;9117;52.420;20.728;2022-12-08T17:28:35;2.50;1.00
17984;DHT22;9117;52.420;20.728;2022-12-08T17:33:57;2.50;1.00
17984;DHT22;9117;52.420;20.728;2022-12-08T17:38:54;2.40;99.90
17984;DHT22;9117;52.420;20.728;2022-12-08T17:41:22;2.60;99.90
17984;DHT22;9117;52.420;20.728;2022-12-08T17:43:51;2.50;99.90
17984;DHT22;9117;52.420;20.728;2022-12-08T17:46:20;2.50;99.90
17984;DHT22;9117;52.420;20.728;2022-12-08T17:48:49;2.40;99.90
17984;DHT22;9117;52.420;20.728;2022-12-08T17:51:17;2.60;99.90
17984;DHT22;9117;52.420;20.728;2022-12-08T17:56:15;2.60;99.90
17984;DHT22;9117;52.420;20.728;2022-12-08T17:58:44;2.50;99.90
17984;DHT22;9117;52.420;20.728;2022-12-08T18:01:19;2.50;62.30
17984;DHT22;9117;52.420;20.728;2022-12-08T18:03:48;2.50;68.40
17984;DHT22;9117;52.420;20.728;2022-12-08T18:06:16;2.30;30.70
17984;DHT22;9117;52.420;20.728;2022-12-08T18:08:44;2.40;99.40
17984;DHT22;9117;52.420;20.728;2022-12-08T18:11:15;2.70;81.80
17984;DHT22;9117;52.420;20.728;2022-12-08T18:13:43;2.40;87.00
17984;DHT22;9117;52.420;20.728;2022-12-08T18:16:12;2.30;99.90
17984;DHT22;9117;52.420;20.728;2022-12-08T18:18:42;2.40;34.70
17984;DHT22;9117;52.420;20.728;2022-12-08T18:21:11;2.30;99.90
17984;DHT22;9117;52.420;20.728;2022-12-08T18:23:45;2.20;99.90
17984;DHT22;9117;52.420;20.728;2022-12-08T18:26:15;2.40;50.10
17984;DHT22;9117;52.420;20.728;2022-12-08T18:28:43;2.40;77.80
17984;DHT22;9117;52.420;20.728;2022-12-08T18:31:13;2.40;97.90
17984;DHT22;9117;52.420;20.728;2022-12-08T18:33:44;2.30;99.90
17984;DHT22;9117;52.420;20.728;2022-12-08T18:36:15;2.40;99.90